createdAt,value
2023-04-08T00:00:43.547Z,33.40
2023-04-08T00:01:43.566Z,28.10
2023-04-08T00:02:43.756Z,26.90
2023-04-08T00:03:43.610Z,27.40
2023-04-08T00:04:43.569Z,28.30
2023-04-08T00:05:43.489Z,32.10
2023-04-08T00:06:43.483Z,31.20
2023-04-08T00:07:43.521Z,34.00
2023-04-08T00:08:43.434Z,27.50
2023-04-08T00:09:43.477Z,27.80
2023-04-08T00:10:43.462Z,31.20
2023-04-08T00:11:43.439Z,27.30
2023-04-08T00:12:43.395Z,30.60
2023-04-08T00:13:43.423Z,24.30
2023-04-08T00:14:43.386Z,27.00
2023-04-08T00:15:43.395Z,26.00
2023-04-08T00:16:43.378Z,28.60
2023-04-08T00:17:43.374Z,25.70
2023-04-08T00:18:43.380Z,27.50
2023-04-08T00:19:43.312Z,30.10
2023-04-08T00:20:43.348Z,30.80
2023-04-08T00:21:43.297Z,27.50
2023-04-08T00:22:44.290Z,29.70
2023-04-08T00:23:43.286Z,24.70
2023-04-08T00:24:43.260Z,24.70
2023-04-08T00:25:43.285Z,23.90
2023-04-08T00:26:44.316Z,23.00
2023-04-08T00:27:43.248Z,28.70
2023-04-08T00:28:43.237Z,26.70
2023-04-08T00:29:43.264Z,26.10
2023-04-08T00:30:43.358Z,25.40
2023-04-08T00:31:43.250Z,27.30
2023-04-08T00:32:43.259Z,28.10
2023-04-08T00:33:43.188Z,25.60
2023-04-08T00:34:43.204Z,24.60
2023-04-08T00:35:43.247Z,24.80
2023-04-08T00:36:43.220Z,22.20
2023-04-08T00:37:43.172Z,27.10
2023-04-08T00:38:43.171Z,23.90
2023-04-08T00:39:43.155Z,24.30
2023-04-08T00:40:43.064Z,24.40
2023-04-08T00:41:43.096Z,23.30
2023-04-08T00:42:43.127Z,25.40
2023-04-08T00:43:43.068Z,26.30
2023-04-08T00:44:43.060Z,25.70
2023-04-08T00:45:43.033Z,26.90
2023-04-08T00:46:43.100Z,26.50
2023-04-08T00:47:43.117Z,26.50
2023-04-08T00:48:43.066Z,33.80
2023-04-08T00:49:43.079Z,27.80
2023-04-08T00:50:43.028Z,26.80
2023-04-08T00:51:43.161Z,27.20
2023-04-08T00:52:43.175Z,24.00
2023-04-08T00:53:42.954Z,24.50
2023-04-08T00:54:43.020Z,27.40
2023-04-08T00:55:42.938Z,26.60
2023-04-08T00:56:43.304Z,25.80
2023-04-08T00:57:42.932Z,25.30
2023-04-08T00:58:42.973Z,27.20
2023-04-08T00:59:42.881Z,26.30
2023-04-08T01:00:42.972Z,29.00
2023-04-08T01:01:43.907Z,26.60
2023-04-08T01:02:43.059Z,25.50
2023-04-08T01:03:43.086Z,27.60
2023-04-08T01:04:42.840Z,29.00
2023-04-08T01:05:42.891Z,24.30
2023-04-08T01:06:42.901Z,23.40
2023-04-08T01:07:42.795Z,23.80
2023-04-08T01:08:42.862Z,25.30
2023-04-08T01:09:42.834Z,27.50
2023-04-08T01:10:42.851Z,31.10
2023-04-08T01:11:43.827Z,26.70
2023-04-08T01:12:42.788Z,27.20
2023-04-08T01:13:42.739Z,23.80
2023-04-08T01:14:42.742Z,27.10
2023-04-08T01:15:42.951Z,24.90
2023-04-08T01:16:42.704Z,27.30
2023-04-08T01:17:42.759Z,23.70
2023-04-08T01:18:42.691Z,22.70
2023-04-08T01:19:42.823Z,25.20
2023-04-08T01:20:42.705Z,21.70
2023-04-08T01:21:42.788Z,23.70
2023-04-08T01:22:42.679Z,26.90
2023-04-08T01:23:42.680Z,25.70
2023-04-08T01:24:42.647Z,28.10
2023-04-08T01:25:42.641Z,24.50
2023-04-08T01:26:42.605Z,28.00
2023-04-08T01:27:42.611Z,26.40
2023-04-08T01:28:42.645Z,26.60
2023-04-08T01:29:42.627Z,24.30
2023-04-08T01:30:42.628Z,26.00
2023-04-08T01:31:42.605Z,27.10
2023-04-08T01:32:42.614Z,26.80
2023-04-08T01:33:42.687Z,26.00
2023-04-08T01:34:42.593Z,26.40
2023-04-08T01:35:42.583Z,31.50
2023-04-08T01:36:42.580Z,24.20
2023-04-08T01:37:42.476Z,24.10
2023-04-08T01:38:43.343Z,28.80
2023-04-08T01:39:42.537Z,28.10
2023-04-08T01:40:42.493Z,28.30
2023-04-08T01:41:42.487Z,26.80
2023-04-08T01:42:42.473Z,24.00
2023-04-08T01:43:42.452Z,25.20
2023-04-08T01:44:42.668Z,23.00
2023-04-08T01:45:42.484Z,25.60
2023-04-08T01:46:42.437Z,22.80
2023-04-08T01:47:42.548Z,27.90
2023-04-08T01:48:42.445Z,26.30
2023-04-08T01:49:42.369Z,28.20
2023-04-08T01:50:42.446Z,28.80
2023-04-08T01:51:42.356Z,28.50
2023-04-08T01:52:42.402Z,34.50
2023-04-08T01:53:42.338Z,25.10
2023-04-08T01:54:42.366Z,29.80
2023-04-08T01:55:42.361Z,25.10
2023-04-08T01:56:42.433Z,25.30
2023-04-08T01:57:42.314Z,27.50
2023-04-08T01:58:42.278Z,30.20
2023-04-08T01:59:42.234Z,27.50
2023-04-08T02:00:42.256Z,29.20
2023-04-08T02:01:42.334Z,26.50
2023-04-08T02:02:42.432Z,25.70
2023-04-08T02:03:42.375Z,30.00
2023-04-08T02:04:42.418Z,24.50
2023-04-08T02:05:42.244Z,29.50
2023-04-08T02:06:42.192Z,27.30
2023-04-08T02:07:42.203Z,30.20
2023-04-08T02:08:42.249Z,28.00
2023-04-08T02:09:42.172Z,26.60
2023-04-08T02:10:42.201Z,27.20
2023-04-08T02:11:42.211Z,27.50
2023-04-08T02:12:42.095Z,28.20
2023-04-08T02:13:42.164Z,27.40
2023-04-08T02:14:42.104Z,26.00
2023-04-08T02:15:42.164Z,28.90
2023-04-08T02:16:42.189Z,30.30
2023-04-08T02:17:42.155Z,26.20
2023-04-08T02:18:42.056Z,25.40
2023-04-08T02:19:42.087Z,22.30
2023-04-08T02:20:42.068Z,28.90
2023-04-08T02:21:42.022Z,29.60
2023-04-08T02:22:42.073Z,24.30
2023-04-08T02:23:42.084Z,25.80
2023-04-08T02:24:42.032Z,27.30
2023-04-08T02:25:42.064Z,26.40
2023-04-08T02:26:42.041Z,26.40
2023-04-08T02:27:41.976Z,24.70
2023-04-08T02:28:41.968Z,25.60
2023-04-08T02:29:41.953Z,25.20
2023-04-08T02:30:41.910Z,25.30
2023-04-08T02:31:42.003Z,26.20
2023-04-08T02:32:41.945Z,23.20
2023-04-08T02:33:41.933Z,24.30
2023-04-08T02:34:41.894Z,24.40
2023-04-08T02:35:41.914Z,24.30
2023-04-08T02:36:41.860Z,23.40
2023-04-08T02:37:41.875Z,24.70
2023-04-08T02:38:41.862Z,26.40
2023-04-08T02:39:41.828Z,24.80
2023-04-08T02:40:41.890Z,22.50
2023-04-08T02:41:41.831Z,23.50
2023-04-08T02:42:41.797Z,25.00
2023-04-08T02:43:41.920Z,26.20
2023-04-08T02:44:41.777Z,24.30
2023-04-08T02:45:41.881Z,26.20
2023-04-08T02:46:41.758Z,24.80
2023-04-08T02:47:41.804Z,27.00
2023-04-08T02:48:41.796Z,25.00
2023-04-08T02:49:41.764Z,24.70
2023-04-08T02:50:41.712Z,24.70
2023-04-08T02:51:41.802Z,22.30
2023-04-08T02:52:41.752Z,22.40
2023-04-08T02:53:41.767Z,23.80
2023-04-08T02:54:41.699Z,22.80
2023-04-08T02:55:41.717Z,22.10
2023-04-08T02:56:41.674Z,22.90
2023-04-08T02:57:41.680Z,23.40
2023-04-08T02:58:41.627Z,25.60
2023-04-08T02:59:42.638Z,24.00
2023-04-08T03:00:41.650Z,22.40
2023-04-08T03:01:41.627Z,25.70
2023-04-08T03:02:41.760Z,23.60
2023-04-08T03:03:41.868Z,23.60
2023-04-08T03:04:41.662Z,25.00
2023-04-08T03:05:41.599Z,24.50
2023-04-08T03:06:41.593Z,24.60
2023-04-08T03:07:41.718Z,24.90
2023-04-08T03:08:41.517Z,25.50
2023-04-08T03:09:42.376Z,26.10
2023-04-08T03:10:41.550Z,23.20
2023-04-08T03:11:41.511Z,25.40
2023-04-08T03:12:41.520Z,25.50
2023-04-08T03:13:41.472Z,24.80
2023-04-08T03:14:41.500Z,24.10
2023-04-08T03:15:41.471Z,25.00
2023-04-08T03:16:41.470Z,28.00
2023-04-08T03:17:41.456Z,25.40
2023-04-08T03:18:41.417Z,24.00
2023-04-08T03:19:41.468Z,27.90
2023-04-08T03:20:41.408Z,27.90
2023-04-08T03:21:41.400Z,26.60
2023-04-08T03:22:42.310Z,28.20
2023-04-08T03:23:41.409Z,24.40
2023-04-08T03:24:41.413Z,25.10
2023-04-08T03:25:41.369Z,27.90
2023-04-08T03:26:41.377Z,28.60
2023-04-08T03:27:41.358Z,26.80
2023-04-08T03:28:41.337Z,24.80
2023-04-08T03:29:41.352Z,26.30
2023-04-08T03:30:41.327Z,25.70
2023-04-08T03:31:41.382Z,25.80
2023-04-08T03:32:41.349Z,26.30
2023-04-08T03:33:41.236Z,23.70
2023-04-08T03:34:41.295Z,21.60
2023-04-08T03:35:41.289Z,21.70
2023-04-08T03:36:41.245Z,25.90
2023-04-08T03:37:41.249Z,26.10
2023-04-08T03:38:41.238Z,22.50
2023-04-08T03:39:41.199Z,25.00
2023-04-08T03:40:41.212Z,22.10
2023-04-08T03:41:41.124Z,23.00
2023-04-08T03:42:41.181Z,22.40
2023-04-08T03:43:41.233Z,21.30
2023-04-08T03:44:41.141Z,23.40
2023-04-08T03:45:41.133Z,23.00
2023-04-08T03:46:41.179Z,21.40
2023-04-08T03:47:41.204Z,19.80
2023-04-08T03:48:41.118Z,19.20
2023-04-08T03:49:41.144Z,18.80
2023-04-08T03:50:41.050Z,20.50
2023-04-08T03:51:41.095Z,18.50
2023-04-08T03:52:41.135Z,19.60
2023-04-08T03:53:41.087Z,20.30
2023-04-08T03:54:41.058Z,23.30
2023-04-08T03:55:41.072Z,20.30
2023-04-08T03:56:41.081Z,22.20
2023-04-08T03:57:41.068Z,22.10
2023-04-08T03:58:41.020Z,23.00
2023-04-08T03:59:41.037Z,20.30
2023-04-08T04:00:40.966Z,22.20
2023-04-08T04:01:42.093Z,23.70
2023-04-08T04:02:42.018Z,20.50
2023-04-08T04:03:41.073Z,20.10
2023-04-08T04:04:40.916Z,20.90
2023-04-08T04:05:40.915Z,18.30
2023-04-08T04:06:40.973Z,17.60
2023-04-08T04:07:40.897Z,17.90
2023-04-08T04:08:40.928Z,24.00
2023-04-08T04:09:40.916Z,18.30
2023-04-08T04:10:40.917Z,15.30
2023-04-08T04:11:40.892Z,14.70
2023-04-08T04:12:40.865Z,18.40
2023-04-08T04:13:40.879Z,15.70
2023-04-08T04:14:40.785Z,15.60
2023-04-08T04:15:40.850Z,17.00
2023-04-08T04:16:41.366Z,13.80
2023-04-08T04:17:40.803Z,15.20
2023-04-08T04:18:40.830Z,15.90
2023-04-08T04:19:40.793Z,14.30
2023-04-08T04:20:40.793Z,14.60
2023-04-08T04:21:40.748Z,15.80
2023-04-08T04:22:40.720Z,12.40
2023-04-08T04:23:40.757Z,13.70
2023-04-08T04:24:40.695Z,13.60
2023-04-08T04:25:40.697Z,18.00
2023-04-08T04:26:40.725Z,15.50
2023-04-08T04:27:40.732Z,13.70
2023-04-08T04:28:40.702Z,12.10
2023-04-08T04:29:40.672Z,13.00
2023-04-08T04:30:40.690Z,13.50
2023-04-08T04:31:40.760Z,13.70
2023-04-08T04:32:40.662Z,12.80
2023-04-08T04:33:41.633Z,15.10
2023-04-08T04:34:40.638Z,12.20
2023-04-08T04:35:40.634Z,12.80
2023-04-08T04:36:40.600Z,13.40
2023-04-08T04:37:40.574Z,17.00
2023-04-08T04:38:40.608Z,17.40
2023-04-08T04:39:40.574Z,15.60
2023-04-08T04:40:40.524Z,13.70
2023-04-08T04:41:40.633Z,14.20
2023-04-08T04:42:40.550Z,13.30
2023-04-08T04:43:40.534Z,16.70
2023-04-08T04:44:40.588Z,12.10
2023-04-08T04:45:40.515Z,15.20
2023-04-08T04:46:40.488Z,14.40
2023-04-08T04:47:40.507Z,15.10
2023-04-08T04:48:40.516Z,14.50
2023-04-08T04:49:40.456Z,15.50
2023-04-08T04:50:40.437Z,16.00
2023-04-08T04:51:40.408Z,16.10
2023-04-08T04:52:40.412Z,17.50
2023-04-08T04:53:40.396Z,13.80
2023-04-08T04:54:40.396Z,14.10
2023-04-08T04:55:40.421Z,15.90
2023-04-08T04:56:40.419Z,16.70
2023-04-08T04:57:40.363Z,13.60
2023-04-08T04:58:40.350Z,17.30
2023-04-08T04:59:40.549Z,14.10
2023-04-08T05:00:40.376Z,17.10
2023-04-08T05:01:40.437Z,17.30
2023-04-08T05:02:40.511Z,19.10
2023-04-08T05:03:40.318Z,17.60
2023-04-08T05:04:40.301Z,17.60
2023-04-08T05:05:40.276Z,16.50
2023-04-08T05:06:40.265Z,19.30
2023-04-08T05:07:40.298Z,20.10
2023-04-08T05:08:40.317Z,21.20
2023-04-08T05:09:40.260Z,19.30
2023-04-08T05:10:40.275Z,17.20
2023-04-08T05:11:41.194Z,17.30
2023-04-08T05:12:40.228Z,17.70
2023-04-08T05:13:40.197Z,16.90
2023-04-08T05:14:40.170Z,16.00
2023-04-08T05:15:40.321Z,24.90
2023-04-08T05:16:40.984Z,17.30
2023-04-08T05:17:40.204Z,17.10
2023-04-08T05:18:40.158Z,19.70
2023-04-08T05:19:40.178Z,18.00
2023-04-08T05:20:40.176Z,20.00
2023-04-08T05:21:40.062Z,16.10
2023-04-08T05:22:40.229Z,22.40
2023-04-08T05:23:40.944Z,16.30
2023-04-08T05:24:40.063Z,18.20
2023-04-08T05:25:40.207Z,20.20
2023-04-08T05:26:40.099Z,17.90
2023-04-08T05:27:40.063Z,18.60
2023-04-08T05:28:40.096Z,19.10
2023-04-08T05:29:40.028Z,19.60
2023-04-08T05:30:40.059Z,18.80
2023-04-08T05:31:40.126Z,17.40
2023-04-08T05:32:40.026Z,18.40
2023-04-08T05:33:40.083Z,21.50
2023-04-08T05:34:40.042Z,19.50
2023-04-08T05:35:39.996Z,17.90
2023-04-08T05:36:40.045Z,22.60
2023-04-08T05:37:39.922Z,20.60
2023-04-08T05:38:40.056Z,19.60
2023-04-08T05:39:39.951Z,22.70
2023-04-08T05:40:39.924Z,20.90
2023-04-08T05:41:39.909Z,20.60
2023-04-08T05:42:39.906Z,20.20
2023-04-08T05:43:39.963Z,21.20
2023-04-08T05:44:39.886Z,22.60
2023-04-08T05:45:39.878Z,21.90
2023-04-08T05:46:39.884Z,22.00
2023-04-08T05:47:39.920Z,21.10
2023-04-08T05:48:39.822Z,19.30
2023-04-08T05:49:39.871Z,22.40
2023-04-08T05:50:39.862Z,19.00
2023-04-08T05:51:39.802Z,24.20
2023-04-08T05:52:39.788Z,25.00
2023-04-08T05:53:39.803Z,23.50
2023-04-08T05:54:39.747Z,21.60
2023-04-08T05:55:39.749Z,23.90
2023-04-08T05:56:39.770Z,25.40
2023-04-08T05:57:39.770Z,20.80
2023-04-08T05:58:39.710Z,21.20
2023-04-08T05:59:39.743Z,19.70
2023-04-08T06:00:39.684Z,21.10
2023-04-08T06:01:39.867Z,22.30
2023-04-08T06:02:39.782Z,23.30
2023-04-08T06:03:39.787Z,22.80
2023-04-08T06:04:39.719Z,24.70
2023-04-08T06:05:39.667Z,23.50
2023-04-08T06:06:39.798Z,24.20
2023-04-08T06:07:39.627Z,22.60
2023-04-08T06:08:39.613Z,22.00
2023-04-08T06:09:39.547Z,24.20
2023-04-08T06:10:40.698Z,22.50
2023-04-08T06:11:39.517Z,22.60
2023-04-08T06:12:39.519Z,22.20
2023-04-08T06:13:39.524Z,22.80
2023-04-08T06:14:39.497Z,22.60
2023-04-08T06:15:39.572Z,23.00
2023-04-08T06:16:39.510Z,21.90
2023-04-08T06:17:39.565Z,23.50
2023-04-08T06:18:39.461Z,22.00
2023-04-08T06:19:39.607Z,25.70
2023-04-08T06:20:39.931Z,24.80
2023-04-08T06:21:39.450Z,22.90
2023-04-08T06:22:39.498Z,22.20
2023-04-08T06:23:39.479Z,24.50
2023-04-08T06:24:39.411Z,21.30
2023-04-08T06:25:39.440Z,30.50
2023-04-08T06:26:39.416Z,24.30
2023-04-08T06:27:39.417Z,23.10
2023-04-08T06:28:39.453Z,23.10
2023-04-08T06:29:40.599Z,26.60
2023-04-08T06:30:39.343Z,27.30
2023-04-08T06:31:39.712Z,26.60
2023-04-08T06:32:39.362Z,25.40
2023-04-08T06:33:39.357Z,24.20
2023-04-08T06:34:39.352Z,25.80
2023-04-08T06:35:39.340Z,25.20
2023-04-08T06:36:39.327Z,26.30
2023-04-08T06:37:39.286Z,25.70
2023-04-08T06:38:39.306Z,25.70
2023-04-08T06:39:39.287Z,24.10
2023-04-08T06:40:39.258Z,27.50
2023-04-08T06:41:39.273Z,29.60
2023-04-08T06:42:39.242Z,26.40
2023-04-08T06:43:39.231Z,29.10
2023-04-08T06:44:39.290Z,28.90
2023-04-08T06:45:39.277Z,28.40
2023-04-08T06:46:39.219Z,28.70
2023-04-08T06:47:39.269Z,29.50
2023-04-08T06:48:39.172Z,29.30
2023-04-08T06:49:39.243Z,27.20
2023-04-08T06:50:39.199Z,29.60
2023-04-08T06:51:39.182Z,31.70
2023-04-08T06:52:39.161Z,27.50
2023-04-08T06:53:39.159Z,27.20
2023-04-08T06:54:39.139Z,30.50
2023-04-08T06:55:39.185Z,30.80
2023-04-08T06:56:39.152Z,29.00
2023-04-08T06:57:39.107Z,27.20
2023-04-08T06:58:39.111Z,31.90
2023-04-08T06:59:39.071Z,30.80
2023-04-08T07:00:40.342Z,28.90
2023-04-08T07:01:39.160Z,33.40
2023-04-08T07:02:39.093Z,32.00
2023-04-08T07:03:39.171Z,31.40
2023-04-08T07:04:39.078Z,35.60
2023-04-08T07:05:39.031Z,33.30
2023-04-08T07:06:38.988Z,34.20
2023-04-08T07:07:39.013Z,33.80
2023-04-08T07:08:38.996Z,34.70
2023-04-08T07:09:38.949Z,35.50
2023-04-08T07:10:38.966Z,33.60
2023-04-08T07:11:38.943Z,33.80
2023-04-08T07:12:38.975Z,36.10
2023-04-08T07:13:39.775Z,36.50
2023-04-08T07:14:39.049Z,35.80
2023-04-08T07:15:38.917Z,37.40
2023-04-08T07:16:38.994Z,39.90
2023-04-08T07:17:38.982Z,37.00
2023-04-08T07:18:38.890Z,36.40
2023-04-08T07:19:38.849Z,36.30
2023-04-08T07:20:38.827Z,35.90
2023-04-08T07:21:38.818Z,41.60
2023-04-08T07:22:38.823Z,37.60
2023-04-08T07:23:38.845Z,36.40
2023-04-08T07:24:38.837Z,39.10
2023-04-08T07:25:38.808Z,38.80
2023-04-08T07:26:38.801Z,39.50
2023-04-08T07:27:38.773Z,39.80
2023-04-08T07:28:38.780Z,41.10
2023-04-08T07:29:38.738Z,43.60
2023-04-08T07:30:38.838Z,41.50
2023-04-08T07:31:38.899Z,44.00
2023-04-08T07:32:38.698Z,44.10
2023-04-08T07:33:38.692Z,42.50
2023-04-08T07:34:38.702Z,44.70
2023-04-08T07:35:38.751Z,46.10
2023-04-08T07:36:38.655Z,53.90
2023-04-08T07:37:38.648Z,48.10
2023-04-08T07:38:38.694Z,48.50
2023-04-08T07:39:39.649Z,48.00
2023-04-08T07:40:38.609Z,48.40
2023-04-08T07:41:38.622Z,46.70
2023-04-08T07:42:40.711Z,49.30
2023-04-08T07:43:38.583Z,49.10
2023-04-08T07:44:38.639Z,49.10
2023-04-08T07:45:38.569Z,50.90
2023-04-08T07:46:38.663Z,51.40
2023-04-08T07:47:38.605Z,45.60
2023-04-08T07:48:38.541Z,48.60
2023-04-08T07:49:38.610Z,51.20
2023-04-08T07:51:08.216Z,53.50
2023-04-08T07:51:39.551Z,54.30
2023-04-08T07:52:38.469Z,50.10
2023-04-08T07:53:38.509Z,52.30
2023-04-08T07:55:13.296Z,49.60
2023-04-08T07:55:38.510Z,50.70
2023-04-08T07:56:38.973Z,51.60
2023-04-08T07:57:38.465Z,48.90
2023-04-08T07:58:38.460Z,47.40
2023-04-08T07:59:38.448Z,50.60
2023-04-08T08:00:38.463Z,43.40
2023-04-08T08:01:38.404Z,41.10
2023-04-08T08:02:38.554Z,44.60
2023-04-08T08:03:38.500Z,39.80
2023-04-08T08:04:38.534Z,37.30
2023-04-08T08:05:38.350Z,41.70
2023-04-08T08:06:38.391Z,43.60
2023-04-08T08:07:38.363Z,36.80
2023-04-08T08:08:38.323Z,38.60
2023-04-08T08:09:38.354Z,37.60
2023-04-08T08:10:38.310Z,36.30
2023-04-08T08:11:38.307Z,38.10
2023-04-08T08:12:38.301Z,35.30
2023-04-08T08:13:38.298Z,36.30
2023-04-08T08:14:38.270Z,36.10
2023-04-08T08:15:38.287Z,35.30
2023-04-08T08:16:38.245Z,30.50
2023-04-08T08:17:38.307Z,37.90
2023-04-08T08:18:38.280Z,35.10
2023-04-08T08:19:38.243Z,36.10
2023-04-08T08:20:38.224Z,36.60
2023-04-08T08:21:38.208Z,33.70
2023-04-08T08:22:47.221Z,30.50
2023-04-08T08:23:40.193Z,32.50
2023-04-08T08:24:38.218Z,32.30
2023-04-08T08:25:38.177Z,30.60
2023-04-08T08:26:38.099Z,32.60
2023-04-08T08:27:38.178Z,31.80
2023-04-08T08:28:38.110Z,34.60
2023-04-08T08:29:38.198Z,32.70
2023-04-08T08:30:38.118Z,30.80
2023-04-08T08:31:38.137Z,30.80
2023-04-08T08:32:38.548Z,33.10
2023-04-08T08:33:38.069Z,29.40
2023-04-08T08:34:38.070Z,26.20
2023-04-08T08:35:38.111Z,29.00
2023-04-08T08:36:38.035Z,28.80
2023-04-08T08:37:38.018Z,27.90
2023-04-08T08:38:38.935Z,26.60
2023-04-08T08:39:37.985Z,27.50
2023-04-08T08:40:37.989Z,27.40
2023-04-08T08:41:37.971Z,26.60
2023-04-08T08:42:37.976Z,28.30
2023-04-08T08:43:37.928Z,26.70
2023-04-08T08:44:37.938Z,30.20
2023-04-08T08:45:37.903Z,28.10
2023-04-08T08:46:37.991Z,27.50
2023-04-08T08:47:37.981Z,27.00
2023-04-08T08:48:37.906Z,26.60
2023-04-08T08:49:37.855Z,28.80
2023-04-08T08:50:37.923Z,27.20
2023-04-08T08:51:37.835Z,31.00
2023-04-08T08:52:37.856Z,28.80
2023-04-08T08:53:37.860Z,30.60
2023-04-08T08:54:37.843Z,25.70
2023-04-08T08:55:59.987Z,31.30
2023-04-08T08:56:39.814Z,31.10
2023-04-08T08:57:37.809Z,31.20
2023-04-08T08:58:37.816Z,30.60
2023-04-08T08:59:37.881Z,29.30
2023-04-08T09:00:37.775Z,30.90
2023-04-08T09:01:38.045Z,31.00
2023-04-08T09:02:37.905Z,29.70
2023-04-08T09:03:37.906Z,25.50
2023-04-08T09:04:37.855Z,28.30
2023-04-08T09:05:37.798Z,28.20
2023-04-08T09:06:37.689Z,28.80
2023-04-08T09:07:37.753Z,26.80
2023-04-08T09:08:37.719Z,27.40
2023-04-08T09:09:37.718Z,27.80
2023-04-08T09:10:37.652Z,26.80
2023-04-08T09:11:37.669Z,31.30
2023-04-08T09:12:37.620Z,25.30
2023-04-08T09:13:37.588Z,26.40
2023-04-08T09:14:37.705Z,26.80
2023-04-08T09:15:37.637Z,28.00
2023-04-08T09:16:37.775Z,27.40
2023-04-08T09:17:37.595Z,28.90
2023-04-08T09:18:37.706Z,24.40
2023-04-08T09:19:37.623Z,26.20
2023-04-08T09:20:37.627Z,26.00
2023-04-08T09:21:37.752Z,25.40
2023-04-08T09:22:37.583Z,26.90
2023-04-08T09:23:37.641Z,25.40
2023-04-08T09:24:37.535Z,26.90
2023-04-08T09:25:37.537Z,26.90
2023-04-08T09:26:37.580Z,26.10
2023-04-08T09:27:37.546Z,25.20
2023-04-08T09:28:37.534Z,24.20
2023-04-08T09:29:39.797Z,25.30
2023-04-08T09:30:38.542Z,22.50
2023-04-08T09:31:38.479Z,22.50
2023-04-08T09:32:37.471Z,22.30
2023-04-08T09:33:37.489Z,22.90
2023-04-08T09:34:37.469Z,22.40
2023-04-08T09:35:37.757Z,21.60
2023-04-08T09:36:37.456Z,22.00
2023-04-08T09:37:37.413Z,21.30
2023-04-08T09:38:37.441Z,22.60
2023-04-08T09:39:37.393Z,20.00
2023-04-08T09:40:37.441Z,22.20
2023-04-08T09:41:37.318Z,21.10
2023-04-08T09:42:37.356Z,20.90
2023-04-08T09:43:37.300Z,20.00
2023-04-08T09:44:37.393Z,19.20
2023-04-08T09:45:37.402Z,19.00
2023-04-08T09:46:37.338Z,18.60
2023-04-08T09:47:37.399Z,18.20
2023-04-08T09:48:37.296Z,18.70
2023-04-08T09:49:37.318Z,20.30
2023-04-08T09:52:42.718Z,20.40
2023-04-08T09:53:43.055Z,22.20
2023-04-08T09:54:42.841Z,19.60
2023-04-08T09:55:42.827Z,20.90
2023-04-08T09:56:52.354Z,21.60
2023-04-08T09:57:42.649Z,21.30
2023-04-08T09:58:42.621Z,22.60
2023-04-08T09:59:42.591Z,20.00
2023-04-08T10:00:42.662Z,20.40
2023-04-08T10:01:43.124Z,22.20
2023-04-08T10:02:42.776Z,22.30
2023-04-08T10:03:42.684Z,20.90
2023-04-08T10:04:42.643Z,22.10
2023-04-08T10:05:42.573Z,20.80
2023-04-08T10:06:42.552Z,22.70
2023-04-08T10:07:42.596Z,22.50
2023-04-08T10:08:42.518Z,22.90
2023-04-08T10:09:42.537Z,18.80
2023-04-08T10:10:42.497Z,20.00
2023-04-08T10:11:42.632Z,20.40
2023-04-08T10:12:42.428Z,20.90
2023-04-08T10:13:42.535Z,18.70
2023-04-08T10:14:42.453Z,20.20
2023-04-08T10:15:42.425Z,18.90
2023-04-08T10:16:42.520Z,22.00
2023-04-08T10:17:42.482Z,20.30
2023-04-08T10:18:42.467Z,24.50
2023-04-08T10:19:42.448Z,21.70
2023-04-08T10:20:42.941Z,20.30
2023-04-08T10:21:42.381Z,20.80
2023-04-08T10:22:42.454Z,23.00
2023-04-08T10:23:43.486Z,20.40
2023-04-08T10:24:42.394Z,21.10
2023-04-08T10:25:42.357Z,19.30
2023-04-08T10:26:42.332Z,23.10
2023-04-08T10:27:42.342Z,20.50
2023-04-08T10:28:42.291Z,19.80
2023-04-08T10:29:42.314Z,21.80
2023-04-08T10:30:42.278Z,20.30
2023-04-08T10:31:42.370Z,18.60
2023-04-08T10:32:42.307Z,18.90
2023-04-08T10:33:42.306Z,19.70
2023-04-08T10:34:42.257Z,22.20
2023-04-08T10:35:42.337Z,19.50
2023-04-08T10:36:42.233Z,23.00
2023-04-08T10:37:42.251Z,19.70
2023-04-08T10:38:44.782Z,21.00
2023-04-08T10:39:42.196Z,20.30
2023-04-08T10:40:42.163Z,19.80
2023-04-08T10:41:42.125Z,18.70
2023-04-08T10:42:42.163Z,21.20
2023-04-08T10:43:43.412Z,21.50
2023-04-08T10:44:42.249Z,20.50
2023-04-08T10:45:42.201Z,20.50
2023-04-08T10:46:42.306Z,17.80
2023-04-08T10:47:42.185Z,21.00
2023-04-08T10:48:42.045Z,21.80
2023-04-08T10:49:42.173Z,24.00
2023-04-08T10:50:42.015Z,25.30
2023-04-08T10:51:42.033Z,22.70
2023-04-08T10:52:42.007Z,22.70
2023-04-08T10:53:42.032Z,24.60
2023-04-08T10:54:42.008Z,21.30
2023-04-08T10:55:41.998Z,21.90
2023-04-08T10:56:41.955Z,25.60
2023-04-08T10:57:41.968Z,25.10
2023-04-08T10:58:41.923Z,21.80
2023-04-08T10:59:41.888Z,27.00
2023-04-08T11:00:41.965Z,24.20
2023-04-08T11:01:42.041Z,25.80
2023-04-08T11:02:42.061Z,25.40
2023-04-08T11:03:42.989Z,23.80
2023-04-08T11:04:41.958Z,24.20
2023-04-08T11:05:41.893Z,25.60
2023-04-08T11:06:41.870Z,25.80
2023-04-08T11:07:41.840Z,28.00
2023-04-08T11:08:42.306Z,27.50
2023-04-08T11:09:41.808Z,28.10
2023-04-08T11:10:41.842Z,25.50
2023-04-08T11:11:41.837Z,24.70
2023-04-08T11:12:42.307Z,27.30
2023-04-08T11:13:46.454Z,28.10
2023-04-08T11:14:43.735Z,26.70
2023-04-08T11:15:41.786Z,28.20
2023-04-08T11:16:41.790Z,28.50
2023-04-08T11:17:41.747Z,29.30
2023-04-08T11:18:41.683Z,28.50
2023-04-08T11:19:41.695Z,28.20
2023-04-08T11:20:41.698Z,28.90
2023-04-08T11:21:41.703Z,28.90
2023-04-08T11:22:41.679Z,27.50
2023-04-08T11:23:41.661Z,28.50
2023-04-08T11:24:41.646Z,29.10
2023-04-08T11:25:41.651Z,27.60
2023-04-08T11:26:41.655Z,27.80
2023-04-08T11:27:41.659Z,29.50
2023-04-08T11:28:41.601Z,27.20
2023-04-08T11:29:41.588Z,27.10
2023-04-08T11:30:41.598Z,25.90
2023-04-08T11:31:41.607Z,27.40
2023-04-08T11:32:42.621Z,32.90
2023-04-08T11:33:41.543Z,29.60
2023-04-08T11:34:41.597Z,31.30
2023-04-08T11:35:41.631Z,32.10
2023-04-08T11:36:41.558Z,28.00
2023-04-08T11:37:41.549Z,27.50
2023-04-08T11:38:41.545Z,28.80
2023-04-08T11:39:41.494Z,28.40
2023-04-08T11:40:41.477Z,29.40
2023-04-08T11:41:41.467Z,29.50
2023-04-08T11:42:41.463Z,31.50
2023-04-08T11:43:42.302Z,30.40
2023-04-08T11:45:13.853Z,31.80
2023-04-08T11:46:13.907Z,28.30
2023-04-08T11:46:41.482Z,30.00
2023-04-08T11:47:41.417Z,29.90
2023-04-08T11:48:41.430Z,29.40
2023-04-08T11:49:41.417Z,33.00
2023-04-08T11:50:41.415Z,28.90
2023-04-08T11:51:41.353Z,29.50
2023-04-08T11:52:41.326Z,32.40
2023-04-08T11:53:41.383Z,29.60
2023-04-08T11:54:41.362Z,32.50
2023-04-08T11:55:41.367Z,31.40
2023-04-08T11:56:41.372Z,30.40
2023-04-08T11:57:41.435Z,31.30
2023-04-08T11:58:41.382Z,31.80
2023-04-08T11:59:41.403Z,32.40
2023-04-08T12:00:41.369Z,32.00
2023-04-08T12:01:41.424Z,31.10
2023-04-08T12:02:41.336Z,31.40
2023-04-08T12:03:41.507Z,28.70
2023-04-08T12:04:41.359Z,31.40
2023-04-08T12:05:41.332Z,31.10
2023-04-08T12:06:41.306Z,28.60
2023-04-08T12:07:41.232Z,28.60
2023-04-08T12:08:41.275Z,30.50
2023-04-08T12:09:41.210Z,32.10
2023-04-08T12:10:41.247Z,29.70
2023-04-08T12:11:41.208Z,28.60
2023-04-08T12:12:41.241Z,25.10
2023-04-08T12:14:14.516Z,28.20
2023-04-08T12:14:41.169Z,30.60
2023-04-08T12:16:15.137Z,32.50
2023-04-08T12:16:41.178Z,31.50
2023-04-08T12:17:41.130Z,31.10
2023-04-08T12:18:41.091Z,32.00
2023-04-08T12:19:41.138Z,36.60
2023-04-08T12:20:41.073Z,34.20
2023-04-08T12:21:41.145Z,33.10
2023-04-08T12:22:41.037Z,31.10
2023-04-08T12:23:41.055Z,36.90
2023-04-08T12:24:41.013Z,34.80
2023-04-08T12:25:40.980Z,35.20
2023-04-08T12:26:40.988Z,35.30
2023-04-08T12:27:40.957Z,37.40
2023-04-08T12:28:41.889Z,33.30
2023-04-08T12:29:40.978Z,33.60
2023-04-08T12:30:40.959Z,32.90
2023-04-08T12:31:41.583Z,32.80
2023-04-08T12:32:41.004Z,31.90
2023-04-08T12:33:40.931Z,32.50
2023-04-08T12:34:40.908Z,31.60
2023-04-08T12:35:40.935Z,31.60
2023-04-08T12:36:41.932Z,33.50
2023-04-08T12:37:41.899Z,31.30
2023-04-08T12:38:40.891Z,29.60
2023-04-08T12:39:40.854Z,28.60
2023-04-08T12:40:40.821Z,29.90
2023-04-08T12:41:40.848Z,31.20
2023-04-08T12:42:40.843Z,32.90
2023-04-08T12:43:40.825Z,32.80
2023-04-08T12:44:40.809Z,31.40
2023-04-08T12:45:40.824Z,33.40
2023-04-08T12:46:40.870Z,31.50
2023-04-08T12:47:41.804Z,36.10
2023-04-08T12:48:41.045Z,34.40
2023-04-08T12:50:42.493Z,33.20
2023-04-08T12:51:40.852Z,32.00
2023-04-08T12:52:40.708Z,33.50
2023-04-08T12:53:41.719Z,31.30
2023-04-08T12:54:40.715Z,32.90
2023-04-08T12:55:40.993Z,32.80